sensor_id;sensor_type;location;lat;lon;timestamp;P1;durP1;ratioP1;P2;durP2;ratioP2
19891;SDS011;10108;50.142;8.724;2023-03-23T00:01:24;7.53;;;4.80;;
19891;SDS011;10108;50.142;8.724;2023-03-23T00:03:52;6.63;;;4.70;;
19891;SDS011;10108;50.142;8.724;2023-03-23T00:06:23;6.03;;;5.00;;
19891;SDS011;10108;50.142;8.724;2023-03-23T00:08:51;7.53;;;4.70;;
19891;SDS011;10108;50.142;8.724;2023-03-23T00:11:23;7.78;;;4.90;;
19891;SDS011;10108;50.142;8.724;2023-03-23T00:13:52;6.05;;;4.90;;
19891;SDS011;10108;50.142;8.724;2023-03-23T00:16:20;8.13;;;5.05;;
19891;SDS011;10108;50.142;8.724;2023-03-23T00:18:54;8.48;;;4.80;;
19891;SDS011;10108;50.142;8.724;2023-03-23T00:21:23;7.00;;;4.70;;
19891;SDS011;10108;50.142;8.724;2023-03-23T00:26:38;7.05;;;4.93;;
19891;SDS011;10108;50.142;8.724;2023-03-23T00:29:11;6.38;;;4.80;;
19891;SDS011;10108;50.142;8.724;2023-03-23T00:31:40;9.20;;;4.90;;
19891;SDS011;10108;50.142;8.724;2023-03-23T00:34:13;8.13;;;5.18;;
19891;SDS011;10108;50.142;8.724;2023-03-23T00:36:45;7.00;;;4.70;;
19891;SDS011;10108;50.142;8.724;2023-03-23T00:39:12;6.43;;;4.75;;
19891;SDS011;10108;50.142;8.724;2023-03-23T00:41:45;7.30;;;4.90;;
19891;SDS011;10108;50.142;8.724;2023-03-23T00:44:12;7.55;;;4.70;;
19891;SDS011;10108;50.142;8.724;2023-03-23T00:46:46;8.93;;;4.80;;
19891;SDS011;10108;50.142;8.724;2023-03-23T00:49:15;7.20;;;4.72;;
19891;SDS011;10108;50.142;8.724;2023-03-23T00:51:43;5.82;;;4.70;;
19891;SDS011;10108;50.142;8.724;2023-03-23T00:54:10;6.85;;;4.63;;
19891;SDS011;10108;50.142;8.724;2023-03-23T00:56:37;6.40;;;4.75;;
19891;SDS011;10108;50.142;8.724;2023-03-23T00:59:04;6.97;;;4.65;;
19891;SDS011;10108;50.142;8.724;2023-03-23T01:01:31;5.35;;;4.70;;
19891;SDS011;10108;50.142;8.724;2023-03-23T01:03:58;6.45;;;4.82;;
19891;SDS011;10108;50.142;8.724;2023-03-23T01:06:33;7.00;;;4.75;;
19891;SDS011;10108;50.142;8.724;2023-03-23T01:09:04;7.13;;;5.00;;
19891;SDS011;10108;50.142;8.724;2023-03-23T01:11:32;6.97;;;4.93;;
19891;SDS011;10108;50.142;8.724;2023-03-23T01:13:58;6.50;;;4.88;;
19891;SDS011;10108;50.142;8.724;2023-03-23T01:16:27;5.93;;;4.80;;
19891;SDS011;10108;50.142;8.724;2023-03-23T01:18:53;5.95;;;4.93;;
19891;SDS011;10108;50.142;8.724;2023-03-23T01:21:20;5.75;;;4.82;;
19891;SDS011;10108;50.142;8.724;2023-03-23T01:23:47;7.28;;;4.85;;
19891;SDS011;10108;50.142;8.724;2023-03-23T01:26:18;5.93;;;4.93;;
19891;SDS011;10108;50.142;8.724;2023-03-23T01:28:45;6.03;;;4.85;;
19891;SDS011;10108;50.142;8.724;2023-03-23T01:31:13;5.75;;;4.70;;
19891;SDS011;10108;50.142;8.724;2023-03-23T01:33:41;7.15;;;5.00;;
19891;SDS011;10108;50.142;8.724;2023-03-23T01:36:12;6.10;;;4.82;;
19891;SDS011;10108;50.142;8.724;2023-03-23T01:38:43;6.00;;;4.70;;
19891;SDS011;10108;50.142;8.724;2023-03-23T01:41:10;6.55;;;4.93;;
19891;SDS011;10108;50.142;8.724;2023-03-23T01:46:28;5.82;;;5.10;;
19891;SDS011;10108;50.142;8.724;2023-03-23T01:48:56;6.63;;;5.03;;
19891;SDS011;10108;50.142;8.724;2023-03-23T01:51:26;6.45;;;4.63;;
19891;SDS011;10108;50.142;8.724;2023-03-23T01:53:54;5.90;;;5.00;;
19891;SDS011;10108;50.142;8.724;2023-03-23T01:56:23;5.72;;;4.78;;
19891;SDS011;10108;50.142;8.724;2023-03-23T01:58:52;7.00;;;4.90;;
19891;SDS011;10108;50.142;8.724;2023-03-23T02:01:21;6.18;;;5.03;;
19891;SDS011;10108;50.142;8.724;2023-03-23T02:03:50;5.80;;;4.82;;
19891;SDS011;10108;50.142;8.724;2023-03-23T02:06:18;5.93;;;4.80;;
19891;SDS011;10108;50.142;8.724;2023-03-23T02:09:06;6.03;;;4.80;;
19891;SDS011;10108;50.142;8.724;2023-03-23T02:11:32;6.47;;;4.93;;
19891;SDS011;10108;50.142;8.724;2023-03-23T02:13:59;8.52;;;5.10;;
19891;SDS011;10108;50.142;8.724;2023-03-23T02:16:38;6.45;;;4.90;;
19891;SDS011;10108;50.142;8.724;2023-03-23T02:24:59;5.93;;;5.00;;
19891;SDS011;10108;50.142;8.724;2023-03-23T02:30:20;8.25;;;4.90;;
19891;SDS011;10108;50.142;8.724;2023-03-23T02:35:20;5.32;;;4.80;;
19891;SDS011;10108;50.142;8.724;2023-03-23T02:37:49;6.30;;;4.90;;
19891;SDS011;10108;50.142;8.724;2023-03-23T02:40:18;7.38;;;5.15;;
19891;SDS011;10108;50.142;8.724;2023-03-23T02:42:47;6.03;;;4.90;;
19891;SDS011;10108;50.142;8.724;2023-03-23T02:45:15;6.78;;;4.80;;
19891;SDS011;10108;50.142;8.724;2023-03-23T02:47:42;6.97;;;5.30;;
19891;SDS011;10108;50.142;8.724;2023-03-23T02:50:10;7.55;;;5.25;;
19891;SDS011;10108;50.142;8.724;2023-03-23T02:52:37;6.80;;;5.20;;
19891;SDS011;10108;50.142;8.724;2023-03-23T02:55:05;7.90;;;5.90;;
19891;SDS011;10108;50.142;8.724;2023-03-23T02:57:33;6.72;;;6.00;;
19891;SDS011;10108;50.142;8.724;2023-03-23T03:00:03;6.65;;;5.95;;
19891;SDS011;10108;50.142;8.724;2023-03-23T03:02:32;10.30;;;6.90;;
19891;SDS011;10108;50.142;8.724;2023-03-23T03:10:31;8.43;;;7.40;;
19891;SDS011;10108;50.142;8.724;2023-03-23T03:13:05;8.10;;;7.30;;
19891;SDS011;10108;50.142;8.724;2023-03-23T03:15:40;8.82;;;7.20;;
19891;SDS011;10108;50.142;8.724;2023-03-23T03:20:38;7.80;;;7.00;;
19891;SDS011;10108;50.142;8.724;2023-03-23T03:23:07;8.57;;;7.40;;
19891;SDS011;10108;50.142;8.724;2023-03-23T03:25:34;8.30;;;7.40;;
19891;SDS011;10108;50.142;8.724;2023-03-23T03:28:01;8.40;;;7.40;;
19891;SDS011;10108;50.142;8.724;2023-03-23T03:30:38;7.82;;;7.03;;
19891;SDS011;10108;50.142;8.724;2023-03-23T03:33:06;8.80;;;7.78;;
19891;SDS011;10108;50.142;8.724;2023-03-23T03:35:35;9.98;;;7.63;;
19891;SDS011;10108;50.142;8.724;2023-03-23T03:38:06;10.15;;;8.73;;
19891;SDS011;10108;50.142;8.724;2023-03-23T03:40:34;9.77;;;8.73;;
19891;SDS011;10108;50.142;8.724;2023-03-23T03:43:00;12.27;;;10.57;;
19891;SDS011;10108;50.142;8.724;2023-03-23T03:45:27;11.68;;;10.57;;
19891;SDS011;10108;50.142;8.724;2023-03-23T03:47:54;12.15;;;10.50;;
19891;SDS011;10108;50.142;8.724;2023-03-23T03:50:21;11.75;;;10.40;;
19891;SDS011;10108;50.142;8.724;2023-03-23T03:52:48;11.30;;;10.20;;
19891;SDS011;10108;50.142;8.724;2023-03-23T03:55:15;11.15;;;10.10;;
19891;SDS011;10108;50.142;8.724;2023-03-23T03:57:44;10.00;;;9.00;;
19891;SDS011;10108;50.142;8.724;2023-03-23T04:00:21;9.98;;;8.98;;
19891;SDS011;10108;50.142;8.724;2023-03-23T04:02:48;9.75;;;8.77;;
19891;SDS011;10108;50.142;8.724;2023-03-23T04:05:34;10.20;;;9.20;;
19891;SDS011;10108;50.142;8.724;2023-03-23T04:08:02;11.15;;;8.38;;
19891;SDS011;10108;50.142;8.724;2023-03-23T04:10:31;9.07;;;8.18;;
19891;SDS011;10108;50.142;8.724;2023-03-23T04:12:58;10.20;;;8.00;;
19891;SDS011;10108;50.142;8.724;2023-03-23T04:15:34;8.88;;;7.65;;
19891;SDS011;10108;50.142;8.724;2023-03-23T04:18:01;8.90;;;7.90;;
19891;SDS011;10108;50.142;8.724;2023-03-23T04:20:29;11.15;;;7.97;;
19891;SDS011;10108;50.142;8.724;2023-03-23T04:22:56;10.88;;;8.10;;
19891;SDS011;10108;50.142;8.724;2023-03-23T04:25:24;9.70;;;8.35;;
19891;SDS011;10108;50.142;8.724;2023-03-23T04:27:52;9.05;;;7.50;;
19891;SDS011;10108;50.142;8.724;2023-03-23T04:30:24;9.00;;;7.70;;
19891;SDS011;10108;50.142;8.724;2023-03-23T04:33:00;8.55;;;7.45;;
19891;SDS011;10108;50.142;8.724;2023-03-23T04:35:29;9.55;;;7.85;;
19891;SDS011;10108;50.142;8.724;2023-03-23T04:38:16;11.65;;;7.78;;
19891;SDS011;10108;50.142;8.724;2023-03-23T04:40:47;8.93;;;7.55;;
19891;SDS011;10108;50.142;8.724;2023-03-23T04:43:31;8.50;;;7.40;;
19891;SDS011;10108;50.142;8.724;2023-03-23T04:46:16;9.65;;;7.28;;
19891;SDS011;10108;50.142;8.724;2023-03-23T04:48:44;9.75;;;7.00;;
19891;SDS011;10108;50.142;8.724;2023-03-23T04:51:16;9.73;;;7.45;;
19891;SDS011;10108;50.142;8.724;2023-03-23T04:53:45;9.65;;;7.13;;
19891;SDS011;10108;50.142;8.724;2023-03-23T04:56:12;9.15;;;7.40;;
19891;SDS011;10108;50.142;8.724;2023-03-23T04:58:44;8.68;;;7.20;;
19891;SDS011;10108;50.142;8.724;2023-03-23T05:01:33;10.07;;;7.10;;
19891;SDS011;10108;50.142;8.724;2023-03-23T05:04:19;8.20;;;7.05;;
19891;SDS011;10108;50.142;8.724;2023-03-23T05:06:57;8.57;;;7.13;;
19891;SDS011;10108;50.142;8.724;2023-03-23T05:09:27;9.30;;;7.10;;
19891;SDS011;10108;50.142;8.724;2023-03-23T05:11:54;10.05;;;7.30;;
19891;SDS011;10108;50.142;8.724;2023-03-23T05:14:21;8.77;;;7.03;;
19891;SDS011;10108;50.142;8.724;2023-03-23T05:16:59;9.00;;;6.78;;
19891;SDS011;10108;50.142;8.724;2023-03-23T05:19:25;7.13;;;6.43;;
19891;SDS011;10108;50.142;8.724;2023-03-23T05:21:56;8.98;;;6.97;;
19891;SDS011;10108;50.142;8.724;2023-03-23T05:24:30;7.93;;;6.60;;
19891;SDS011;10108;50.142;8.724;2023-03-23T05:26:59;8.20;;;6.78;;
19891;SDS011;10108;50.142;8.724;2023-03-23T05:29:31;9.07;;;6.43;;
19891;SDS011;10108;50.142;8.724;2023-03-23T05:32:00;8.77;;;6.47;;
19891;SDS011;10108;50.142;8.724;2023-03-23T05:34:28;9.25;;;6.93;;
19891;SDS011;10108;50.142;8.724;2023-03-23T05:36:58;9.52;;;6.90;;
19891;SDS011;10108;50.142;8.724;2023-03-23T05:39:55;10.35;;;7.20;;
19891;SDS011;10108;50.142;8.724;2023-03-23T05:42:41;9.77;;;6.75;;
19891;SDS011;10108;50.142;8.724;2023-03-23T05:45:13;8.13;;;7.20;;
19891;SDS011;10108;50.142;8.724;2023-03-23T05:47:40;10.50;;;7.20;;
19891;SDS011;10108;50.142;8.724;2023-03-23T05:50:11;9.88;;;7.30;;
19891;SDS011;10108;50.142;8.724;2023-03-23T05:52:39;10.35;;;6.90;;
19891;SDS011;10108;50.142;8.724;2023-03-23T05:55:09;7.47;;;6.45;;
19891;SDS011;10108;50.142;8.724;2023-03-23T05:57:37;11.15;;;7.50;;
19891;SDS011;10108;50.142;8.724;2023-03-23T06:00:07;8.38;;;7.47;;
19891;SDS011;10108;50.142;8.724;2023-03-23T06:02:47;8.30;;;7.20;;
19891;SDS011;10108;50.142;8.724;2023-03-23T06:05:20;11.40;;;7.60;;
19891;SDS011;10108;50.142;8.724;2023-03-23T06:07:52;8.00;;;7.20;;
19891;SDS011;10108;50.142;8.724;2023-03-23T06:10:19;8.30;;;7.00;;
19891;SDS011;10108;50.142;8.724;2023-03-23T06:12:53;7.93;;;7.13;;
19891;SDS011;10108;50.142;8.724;2023-03-23T06:15:40;7.20;;;6.47;;
19891;SDS011;10108;50.142;8.724;2023-03-23T06:18:06;8.27;;;6.57;;
19891;SDS011;10108;50.142;8.724;2023-03-23T06:20:40;8.27;;;6.60;;
19891;SDS011;10108;50.142;8.724;2023-03-23T06:23:24;8.63;;;6.30;;
19891;SDS011;10108;50.142;8.724;2023-03-23T06:25:59;9.60;;;6.40;;
19891;SDS011;10108;50.142;8.724;2023-03-23T06:28:26;7.93;;;6.32;;
19891;SDS011;10108;50.142;8.724;2023-03-23T06:30:54;10.02;;;6.10;;
19891;SDS011;10108;50.142;8.724;2023-03-23T06:33:20;7.28;;;5.93;;
19891;SDS011;10108;50.142;8.724;2023-03-23T06:36:04;7.05;;;5.85;;
19891;SDS011;10108;50.142;8.724;2023-03-23T06:38:42;11.30;;;6.40;;
19891;SDS011;10108;50.142;8.724;2023-03-23T06:41:09;9.40;;;6.22;;
19891;SDS011;10108;50.142;8.724;2023-03-23T06:43:35;9.82;;;6.70;;
19891;SDS011;10108;50.142;8.724;2023-03-23T06:46:12;10.73;;;6.57;;
19891;SDS011;10108;50.142;8.724;2023-03-23T06:48:39;9.13;;;6.35;;
19891;SDS011;10108;50.142;8.724;2023-03-23T06:51:06;8.65;;;6.13;;
19891;SDS011;10108;50.142;8.724;2023-03-23T06:53:35;9.73;;;6.13;;
19891;SDS011;10108;50.142;8.724;2023-03-23T06:56:03;10.10;;;6.40;;
19891;SDS011;10108;50.142;8.724;2023-03-23T06:58:30;11.07;;;5.95;;
19891;SDS011;10108;50.142;8.724;2023-03-23T07:00:57;8.38;;;5.78;;
19891;SDS011;10108;50.142;8.724;2023-03-23T07:03:30;11.15;;;5.80;;
19891;SDS011;10108;50.142;8.724;2023-03-23T07:05:58;7.65;;;5.65;;
19891;SDS011;10108;50.142;8.724;2023-03-23T07:08:28;9.77;;;5.50;;
19891;SDS011;10108;50.142;8.724;2023-03-23T07:10:55;6.50;;;5.35;;
19891;SDS011;10108;50.142;8.724;2023-03-23T07:13:27;8.10;;;5.82;;
19891;SDS011;10108;50.142;8.724;2023-03-23T07:15:57;10.05;;;5.53;;
19891;SDS011;10108;50.142;8.724;2023-03-23T07:18:23;9.88;;;5.68;;
19891;SDS011;10108;50.142;8.724;2023-03-23T07:20:52;8.88;;;5.72;;
19891;SDS011;10108;50.142;8.724;2023-03-23T07:23:22;7.85;;;6.15;;
19891;SDS011;10108;50.142;8.724;2023-03-23T07:25:59;8.25;;;6.07;;
19891;SDS011;10108;50.142;8.724;2023-03-23T07:28:31;8.95;;;6.63;;
19891;SDS011;10108;50.142;8.724;2023-03-23T07:31:05;10.82;;;6.43;;
19891;SDS011;10108;50.142;8.724;2023-03-23T07:33:34;8.30;;;6.10;;
19891;SDS011;10108;50.142;8.724;2023-03-23T07:36:01;7.65;;;6.07;;
19891;SDS011;10108;50.142;8.724;2023-03-23T07:38:29;9.32;;;6.45;;
19891;SDS011;10108;50.142;8.724;2023-03-23T07:40:57;8.98;;;6.32;;
19891;SDS011;10108;50.142;8.724;2023-03-23T07:43:24;9.38;;;6.20;;
19891;SDS011;10108;50.142;8.724;2023-03-23T07:46:09;7.63;;;5.47;;
19891;SDS011;10108;50.142;8.724;2023-03-23T07:48:45;8.75;;;6.45;;
19891;SDS011;10108;50.142;8.724;2023-03-23T07:51:12;8.77;;;6.00;;
19891;SDS011;10108;50.142;8.724;2023-03-23T07:53:39;9.85;;;5.80;;
19891;SDS011;10108;50.142;8.724;2023-03-23T07:56:21;11.52;;;5.93;;
19891;SDS011;10108;50.142;8.724;2023-03-23T07:58:53;7.57;;;5.70;;
19891;SDS011;10108;50.142;8.724;2023-03-23T08:01:20;7.60;;;5.82;;
19891;SDS011;10108;50.142;8.724;2023-03-23T08:04:06;7.95;;;5.88;;
19891;SDS011;10108;50.142;8.724;2023-03-23T08:06:56;8.25;;;5.70;;
19891;SDS011;10108;50.142;8.724;2023-03-23T08:09:36;8.02;;;5.60;;
19891;SDS011;10108;50.142;8.724;2023-03-23T08:12:19;7.45;;;5.70;;
19891;SDS011;10108;50.142;8.724;2023-03-23T08:15:10;8.30;;;5.65;;
19891;SDS011;10108;50.142;8.724;2023-03-23T08:18:06;7.85;;;5.80;;
19891;SDS011;10108;50.142;8.724;2023-03-23T08:20:52;7.57;;;5.30;;
19891;SDS011;10108;50.142;8.724;2023-03-23T08:23:19;8.05;;;5.22;;
19891;SDS011;10108;50.142;8.724;2023-03-23T08:26:06;7.22;;;5.15;;
19891;SDS011;10108;50.142;8.724;2023-03-23T08:28:52;8.48;;;5.43;;
19891;SDS011;10108;50.142;8.724;2023-03-23T08:31:51;7.30;;;5.25;;
19891;SDS011;10108;50.142;8.724;2023-03-23T08:34:42;7.97;;;5.30;;
19891;SDS011;10108;50.142;8.724;2023-03-23T08:37:27;10.07;;;5.20;;
19891;SDS011;10108;50.142;8.724;2023-03-23T08:40:13;10.35;;;5.53;;
19891;SDS011;10108;50.142;8.724;2023-03-23T08:43:09;9.32;;;5.47;;
19891;SDS011;10108;50.142;8.724;2023-03-23T08:46:05;8.57;;;5.15;;
19891;SDS011;10108;50.142;8.724;2023-03-23T08:48:50;6.38;;;4.90;;
19891;SDS011;10108;50.142;8.724;2023-03-23T08:51:35;7.43;;;5.03;;
19891;SDS011;10108;50.142;8.724;2023-03-23T08:54:20;6.90;;;5.05;;
19891;SDS011;10108;50.142;8.724;2023-03-23T08:57:17;8.30;;;5.47;;
19891;SDS011;10108;50.142;8.724;2023-03-23T09:00:03;7.72;;;5.25;;
19891;SDS011;10108;50.142;8.724;2023-03-23T09:03:02;7.88;;;5.25;;
19891;SDS011;10108;50.142;8.724;2023-03-23T09:05:39;7.78;;;5.30;;
19891;SDS011;10108;50.142;8.724;2023-03-23T09:08:37;8.98;;;5.38;;
19891;SDS011;10108;50.142;8.724;2023-03-23T09:11:05;7.78;;;5.47;;
19891;SDS011;10108;50.142;8.724;2023-03-23T09:13:33;6.90;;;5.22;;
19891;SDS011;10108;50.142;8.724;2023-03-23T09:15:59;6.72;;;5.30;;
19891;SDS011;10108;50.142;8.724;2023-03-23T09:18:26;7.47;;;5.00;;
19891;SDS011;10108;50.142;8.724;2023-03-23T09:20:53;7.28;;;5.13;;
19891;SDS011;10108;50.142;8.724;2023-03-23T09:23:19;7.90;;;5.38;;
19891;SDS011;10108;50.142;8.724;2023-03-23T09:25:46;9.82;;;5.03;;
19891;SDS011;10108;50.142;8.724;2023-03-23T09:28:13;7.93;;;5.40;;
19891;SDS011;10108;50.142;8.724;2023-03-23T09:30:40;8.63;;;5.50;;
19891;SDS011;10108;50.142;8.724;2023-03-23T09:33:08;7.43;;;5.40;;
19891;SDS011;10108;50.142;8.724;2023-03-23T09:35:35;7.03;;;4.80;;
19891;SDS011;10108;50.142;8.724;2023-03-23T09:38:04;9.40;;;5.50;;
19891;SDS011;10108;50.142;8.724;2023-03-23T09:41:11;7.10;;;5.25;;
19891;SDS011;10108;50.142;8.724;2023-03-23T09:44:06;8.10;;;5.25;;
19891;SDS011;10108;50.142;8.724;2023-03-23T09:46:24;7.97;;;5.40;;
19891;SDS011;10108;50.142;8.724;2023-03-23T09:48:54;6.32;;;5.22;;
19891;SDS011;10108;50.142;8.724;2023-03-23T09:54:11;9.05;;;5.15;;
19891;SDS011;10108;50.142;8.724;2023-03-23T09:56:39;7.07;;;5.13;;
19891;SDS011;10108;50.142;8.724;2023-03-23T09:59:23;5.70;;;4.65;;
19891;SDS011;10108;50.142;8.724;2023-03-23T10:01:57;6.07;;;4.95;;
19891;SDS011;10108;50.142;8.724;2023-03-23T10:04:30;6.28;;;5.07;;
19891;SDS011;10108;50.142;8.724;2023-03-23T10:07:13;7.80;;;5.28;;
19891;SDS011;10108;50.142;8.724;2023-03-23T10:09:42;7.97;;;5.40;;
19891;SDS011;10108;50.142;8.724;2023-03-23T10:15:13;6.38;;;5.25;;
19891;SDS011;10108;50.142;8.724;2023-03-23T10:18:02;7.90;;;5.55;;
19891;SDS011;10108;50.142;8.724;2023-03-23T10:25:29;8.15;;;5.40;;
19891;SDS011;10108;50.142;8.724;2023-03-23T10:30:27;7.65;;;5.72;;
19891;SDS011;10108;50.142;8.724;2023-03-23T10:33:08;8.95;;;5.90;;
19891;SDS011;10108;50.142;8.724;2023-03-23T10:35:45;7.63;;;5.38;;
19891;SDS011;10108;50.142;8.724;2023-03-23T10:38:25;7.72;;;5.65;;
19891;SDS011;10108;50.142;8.724;2023-03-23T10:41:25;7.68;;;5.40;;
19891;SDS011;10108;50.142;8.724;2023-03-23T10:43:45;8.00;;;5.30;;
19891;SDS011;10108;50.142;8.724;2023-03-23T10:48:43;7.13;;;5.22;;
19891;SDS011;10108;50.142;8.724;2023-03-23T10:51:11;5.60;;;5.00;;
19891;SDS011;10108;50.142;8.724;2023-03-23T10:53:42;6.00;;;4.93;;
19891;SDS011;10108;50.142;8.724;2023-03-23T10:56:25;6.97;;;5.28;;
19891;SDS011;10108;50.142;8.724;2023-03-23T10:58:53;9.23;;;5.50;;
19891;SDS011;10108;50.142;8.724;2023-03-23T11:01:27;7.22;;;5.38;;
19891;SDS011;10108;50.142;8.724;2023-03-23T11:03:55;6.75;;;5.25;;
19891;SDS011;10108;50.142;8.724;2023-03-23T11:06:25;6.53;;;5.28;;
19891;SDS011;10108;50.142;8.724;2023-03-23T11:08:54;6.68;;;5.03;;
19891;SDS011;10108;50.142;8.724;2023-03-23T11:11:25;5.50;;;4.90;;
19891;SDS011;10108;50.142;8.724;2023-03-23T11:14:12;7.22;;;5.05;;
19891;SDS011;10108;50.142;8.724;2023-03-23T11:17:19;7.68;;;5.78;;
19891;SDS011;10108;50.142;8.724;2023-03-23T11:19:36;6.07;;;5.05;;
19891;SDS011;10108;50.142;8.724;2023-03-23T11:24:36;6.65;;;5.30;;
19891;SDS011;10108;50.142;8.724;2023-03-23T11:27:06;8.05;;;5.40;;
19891;SDS011;10108;50.142;8.724;2023-03-23T11:29:34;7.65;;;5.65;;
19891;SDS011;10108;50.142;8.724;2023-03-23T11:32:03;8.85;;;5.47;;
19891;SDS011;10108;50.142;8.724;2023-03-23T11:34:34;6.53;;;5.50;;
19891;SDS011;10108;50.142;8.724;2023-03-23T11:39:32;6.85;;;5.45;;
19891;SDS011;10108;50.142;8.724;2023-03-23T11:42:01;6.15;;;5.00;;
19891;SDS011;10108;50.142;8.724;2023-03-23T11:44:32;7.28;;;5.50;;
19891;SDS011;10108;50.142;8.724;2023-03-23T11:47:04;8.05;;;5.40;;
19891;SDS011;10108;50.142;8.724;2023-03-23T11:49:39;5.75;;;4.60;;
19891;SDS011;10108;50.142;8.724;2023-03-23T11:52:32;6.47;;;4.80;;
19891;SDS011;10108;50.142;8.724;2023-03-23T11:54:57;6.63;;;4.90;;
19891;SDS011;10108;50.142;8.724;2023-03-23T11:57:24;5.80;;;4.93;;
19891;SDS011;10108;50.142;8.724;2023-03-23T11:59:53;6.88;;;5.10;;
19891;SDS011;10108;50.142;8.724;2023-03-23T12:02:24;6.18;;;4.80;;
19891;SDS011;10108;50.142;8.724;2023-03-23T12:25:17;6.43;;;5.40;;
19891;SDS011;10108;50.142;8.724;2023-03-23T12:44:00;6.53;;;5.22;;
19891;SDS011;10108;50.142;8.724;2023-03-23T12:51:31;5.65;;;4.93;;
19891;SDS011;10108;50.142;8.724;2023-03-23T12:54:03;6.03;;;4.95;;
19891;SDS011;10108;50.142;8.724;2023-03-23T13:01:48;6.15;;;5.10;;
19891;SDS011;10108;50.142;8.724;2023-03-23T13:04:18;7.20;;;5.20;;
19891;SDS011;10108;50.142;8.724;2023-03-23T13:06:47;5.68;;;4.78;;
19891;SDS011;10108;50.142;8.724;2023-03-23T13:09:19;6.65;;;5.05;;
19891;SDS011;10108;50.142;8.724;2023-03-23T13:11:48;5.57;;;4.97;;
19891;SDS011;10108;50.142;8.724;2023-03-23T13:14:26;6.28;;;5.03;;
19891;SDS011;10108;50.142;8.724;2023-03-23T13:17:00;5.43;;;4.80;;
19891;SDS011;10108;50.142;8.724;2023-03-23T13:19:30;5.82;;;4.97;;
19891;SDS011;10108;50.142;8.724;2023-03-23T13:22:09;6.28;;;5.22;;
19891;SDS011;10108;50.142;8.724;2023-03-23T13:24:38;6.53;;;5.07;;
19891;SDS011;10108;50.142;8.724;2023-03-23T13:27:07;7.07;;;5.20;;
19891;SDS011;10108;50.142;8.724;2023-03-23T13:29:35;6.85;;;5.10;;
19891;SDS011;10108;50.142;8.724;2023-03-23T13:32:20;6.78;;;5.35;;
19891;SDS011;10108;50.142;8.724;2023-03-23T13:34:47;6.05;;;5.20;;
19891;SDS011;10108;50.142;8.724;2023-03-23T13:37:26;5.30;;;4.80;;
19891;SDS011;10108;50.142;8.724;2023-03-23T13:39:57;6.55;;;5.38;;
19891;SDS011;10108;50.142;8.724;2023-03-23T13:42:27;5.68;;;5.00;;
19891;SDS011;10108;50.142;8.724;2023-03-23T13:44:57;7.50;;;5.50;;
19891;SDS011;10108;50.142;8.724;2023-03-23T13:47:41;6.53;;;5.30;;
19891;SDS011;10108;50.142;8.724;2023-03-23T13:50:11;6.65;;;5.28;;
19891;SDS011;10108;50.142;8.724;2023-03-23T13:57:53;7.93;;;5.35;;
19891;SDS011;10108;50.142;8.724;2023-03-23T14:02:50;5.82;;;5.20;;
19891;SDS011;10108;50.142;8.724;2023-03-23T14:10:19;6.15;;;5.47;;
19891;SDS011;10108;50.142;8.724;2023-03-23T14:12:45;6.45;;;5.53;;
19891;SDS011;10108;50.142;8.724;2023-03-23T14:15:12;6.18;;;5.55;;
19891;SDS011;10108;50.142;8.724;2023-03-23T14:17:43;8.73;;;5.53;;
19891;SDS011;10108;50.142;8.724;2023-03-23T14:20:19;6.70;;;5.57;;
19891;SDS011;10108;50.142;8.724;2023-03-23T14:22:47;7.60;;;5.63;;
19891;SDS011;10108;50.142;8.724;2023-03-23T14:25:17;6.28;;;5.40;;
19891;SDS011;10108;50.142;8.724;2023-03-23T14:27:44;7.03;;;5.38;;
19891;SDS011;10108;50.142;8.724;2023-03-23T14:30:21;6.90;;;5.40;;
19891;SDS011;10108;50.142;8.724;2023-03-23T14:32:48;6.30;;;5.30;;
19891;SDS011;10108;50.142;8.724;2023-03-23T14:37:41;7.15;;;5.50;;
19891;SDS011;10108;50.142;8.724;2023-03-23T14:40:11;5.97;;;5.00;;
19891;SDS011;10108;50.142;8.724;2023-03-23T14:42:38;5.50;;;4.93;;
19891;SDS011;10108;50.142;8.724;2023-03-23T14:45:05;6.10;;;5.15;;
19891;SDS011;10108;50.142;8.724;2023-03-23T14:47:33;6.28;;;5.22;;
19891;SDS011;10108;50.142;8.724;2023-03-23T14:50:00;9.23;;;5.38;;
19891;SDS011;10108;50.142;8.724;2023-03-23T14:52:29;7.25;;;4.90;;
19891;SDS011;10108;50.142;8.724;2023-03-23T14:55:06;5.72;;;5.05;;
19891;SDS011;10108;50.142;8.724;2023-03-23T14:57:33;5.93;;;4.97;;
19891;SDS011;10108;50.142;8.724;2023-03-23T15:00:00;6.00;;;5.00;;
19891;SDS011;10108;50.142;8.724;2023-03-23T15:02:27;7.10;;;5.05;;
19891;SDS011;10108;50.142;8.724;2023-03-23T15:04:59;5.90;;;5.05;;
19891;SDS011;10108;50.142;8.724;2023-03-23T15:07:29;5.95;;;5.28;;
19891;SDS011;10108;50.142;8.724;2023-03-23T15:09:56;6.80;;;5.28;;
19891;SDS011;10108;50.142;8.724;2023-03-23T15:12:24;6.68;;;5.35;;
19891;SDS011;10108;50.142;8.724;2023-03-23T15:14:53;6.30;;;5.30;;
19891;SDS011;10108;50.142;8.724;2023-03-23T15:17:25;6.80;;;5.20;;
19891;SDS011;10108;50.142;8.724;2023-03-23T15:19:53;5.88;;;5.03;;
19891;SDS011;10108;50.142;8.724;2023-03-23T15:24:46;6.45;;;5.30;;
19891;SDS011;10108;50.142;8.724;2023-03-23T15:27:17;5.88;;;5.28;;
19891;SDS011;10108;50.142;8.724;2023-03-23T15:29:49;5.90;;;4.90;;
19891;SDS011;10108;50.142;8.724;2023-03-23T15:32:27;5.82;;;4.97;;
19891;SDS011;10108;50.142;8.724;2023-03-23T15:34:54;6.43;;;5.05;;
19891;SDS011;10108;50.142;8.724;2023-03-23T15:37:23;6.65;;;5.00;;
19891;SDS011;10108;50.142;8.724;2023-03-23T15:39:50;7.40;;;5.10;;
19891;SDS011;10108;50.142;8.724;2023-03-23T15:42:28;6.65;;;5.18;;
19891;SDS011;10108;50.142;8.724;2023-03-23T15:44:56;6.25;;;5.03;;
19891;SDS011;10108;50.142;8.724;2023-03-23T15:47:32;7.68;;;5.10;;
19891;SDS011;10108;50.142;8.724;2023-03-23T15:50:19;5.95;;;5.10;;
19891;SDS011;10108;50.142;8.724;2023-03-23T15:52:46;6.15;;;5.13;;
19891;SDS011;10108;50.142;8.724;2023-03-23T15:55:20;6.20;;;5.22;;
19891;SDS011;10108;50.142;8.724;2023-03-23T15:57:48;7.03;;;5.20;;
19891;SDS011;10108;50.142;8.724;2023-03-23T16:00:15;7.22;;;5.70;;
19891;SDS011;10108;50.142;8.724;2023-03-23T16:02:42;7.90;;;5.22;;
19891;SDS011;10108;50.142;8.724;2023-03-23T16:05:13;8.18;;;5.70;;
19891;SDS011;10108;50.142;8.724;2023-03-23T16:07:39;8.80;;;6.15;;
19891;SDS011;10108;50.142;8.724;2023-03-23T16:10:06;6.45;;;5.20;;
19891;SDS011;10108;50.142;8.724;2023-03-23T16:12:32;6.95;;;5.30;;
19891;SDS011;10108;50.142;8.724;2023-03-23T16:14:59;7.55;;;5.50;;
19891;SDS011;10108;50.142;8.724;2023-03-23T16:17:25;5.90;;;4.90;;
19891;SDS011;10108;50.142;8.724;2023-03-23T16:19:52;8.65;;;5.35;;
19891;SDS011;10108;50.142;8.724;2023-03-23T16:22:18;7.45;;;4.80;;
19891;SDS011;10108;50.142;8.724;2023-03-23T16:24:45;7.47;;;5.10;;
19891;SDS011;10108;50.142;8.724;2023-03-23T16:27:11;6.38;;;4.88;;
19891;SDS011;10108;50.142;8.724;2023-03-23T16:29:38;5.70;;;4.80;;
19891;SDS011;10108;50.142;8.724;2023-03-23T16:32:04;6.10;;;4.93;;
19891;SDS011;10108;50.142;8.724;2023-03-23T16:34:31;5.82;;;5.00;;
19891;SDS011;10108;50.142;8.724;2023-03-23T16:37:00;6.38;;;4.90;;
19891;SDS011;10108;50.142;8.724;2023-03-23T16:39:26;6.35;;;4.85;;
19891;SDS011;10108;50.142;8.724;2023-03-23T16:41:53;7.78;;;5.22;;
19891;SDS011;10108;50.142;8.724;2023-03-23T16:44:19;7.70;;;5.03;;
19891;SDS011;10108;50.142;8.724;2023-03-23T16:46:45;6.40;;;4.97;;
19891;SDS011;10108;50.142;8.724;2023-03-23T16:49:12;5.60;;;4.68;;
19891;SDS011;10108;50.142;8.724;2023-03-23T16:51:38;5.25;;;4.70;;
19891;SDS011;10108;50.142;8.724;2023-03-23T16:54:04;8.32;;;5.30;;
19891;SDS011;10108;50.142;8.724;2023-03-23T16:56:31;7.88;;;5.45;;
19891;SDS011;10108;50.142;8.724;2023-03-23T16:58:57;8.10;;;5.20;;
19891;SDS011;10108;50.142;8.724;2023-03-23T17:01:24;7.15;;;5.30;;
19891;SDS011;10108;50.142;8.724;2023-03-23T17:03:50;8.02;;;5.40;;